createdAt,value
2022-10-12T00:02:16.306Z,18.80
2022-10-12T00:07:18.895Z,16.70
2022-10-12T00:12:21.273Z,11.70
2022-10-12T00:17:23.696Z,15.80
2022-10-12T00:22:26.295Z,13.70
2022-10-12T00:27:28.697Z,15.70
2022-10-12T00:32:31.253Z,12.90
2022-10-12T00:37:33.778Z,15.60
2022-10-12T00:42:36.203Z,16.20
2022-10-12T00:47:44.804Z,14.70
2022-10-12T00:52:55.786Z,16.30
2022-10-12T00:57:58.852Z,16.80
2022-10-12T01:03:01.921Z,20.40
2022-10-12T01:08:04.464Z,19.70
2022-10-12T01:13:07.465Z,16.30
2022-10-12T01:18:19.039Z,13.60
2022-10-12T01:23:59.494Z,15.20
2022-10-12T01:29:36.965Z,11.30
2022-10-12T01:35:13.744Z,12.80
2022-10-12T01:40:23.910Z,14.90
2022-10-12T01:45:26.465Z,22.40
2022-10-12T01:50:41.557Z,31.60
2022-10-12T01:55:57.237Z,25.80
2022-10-12T02:01:38.717Z,31.20
2022-10-12T02:11:52.535Z,40.30
2022-10-12T02:17:00.395Z,19.70
2022-10-12T02:22:05.971Z,21.20
2022-10-12T02:27:11.071Z,22.80
2022-10-12T02:32:38.489Z,14.30
2022-10-12T02:37:46.435Z,15.00
2022-10-12T02:43:11.131Z,12.00
2022-10-12T02:48:20.537Z,16.20
2022-10-12T02:53:26.209Z,13.00
2022-10-12T02:58:28.688Z,18.30
2022-10-12T03:03:31.135Z,12.20
2022-10-12T03:08:33.958Z,11.50
2022-10-12T03:13:36.769Z,14.50
2022-10-12T03:18:39.839Z,13.00
2022-10-12T03:23:42.310Z,11.60
2022-10-12T03:28:45.286Z,13.50
2022-10-12T03:33:47.960Z,12.00
2022-10-12T03:38:50.351Z,13.20
2022-10-12T03:43:52.852Z,10.60
2022-10-12T03:48:55.355Z,11.50
2022-10-12T03:53:57.817Z,8.30
2022-10-12T03:59:00.281Z,18.00
2022-10-12T04:04:02.767Z,13.60
2022-10-12T04:09:05.255Z,11.30
2022-10-12T04:14:07.701Z,16.20
2022-10-12T04:19:13.450Z,13.20
2022-10-12T04:24:15.903Z,13.50
2022-10-12T04:29:18.353Z,15.90
2022-10-12T04:34:20.778Z,11.10
2022-10-12T04:39:23.770Z,15.20
2022-10-12T04:44:29.808Z,9.60
2022-10-12T04:49:34.559Z,9.70
2022-10-12T04:54:36.944Z,11.30
2022-10-12T04:59:39.352Z,12.30
2022-10-12T05:04:41.848Z,11.80
2022-10-12T05:09:44.300Z,13.40
2022-10-12T05:14:46.841Z,29.50
2022-10-12T05:19:49.237Z,20.10
2022-10-12T05:24:53.969Z,25.70
2022-10-12T05:29:56.572Z,27.90
2022-10-12T05:34:58.996Z,35.30
2022-10-12T05:40:02.991Z,36.60
2022-10-12T05:45:09.342Z,26.00
2022-10-12T05:50:11.826Z,19.10
2022-10-12T05:55:14.622Z,22.40
2022-10-12T06:00:19.265Z,13.60
2022-10-12T06:05:21.752Z,17.40
2022-10-12T06:10:27.738Z,15.50
2022-10-12T06:15:33.061Z,12.50
2022-10-12T06:20:36.246Z,16.60
2022-10-12T06:25:38.907Z,26.10
2022-10-12T06:30:43.368Z,35.50
2022-10-12T06:35:52.136Z,28.20
2022-10-12T06:40:54.879Z,34.00
2022-10-12T06:46:01.893Z,21.90
2022-10-12T06:51:04.686Z,24.50
2022-10-12T06:56:08.735Z,16.10
2022-10-12T07:01:11.327Z,13.10
2022-10-12T07:06:14.985Z,16.20
2022-10-12T07:11:17.407Z,14.50
2022-10-12T07:16:19.951Z,14.50
2022-10-12T07:21:22.709Z,11.30
2022-10-12T07:26:25.169Z,13.20
2022-10-12T07:31:28.762Z,14.40
2022-10-12T07:36:57.524Z,21.80
2022-10-12T07:41:54.403Z,23.40
2022-10-12T07:46:57.142Z,35.80
2022-10-12T07:51:59.711Z,22.10
2022-10-12T07:57:02.154Z,16.10
2022-10-12T08:02:04.829Z,16.30
2022-10-12T08:07:07.264Z,12.80
2022-10-12T08:12:10.817Z,18.20
2022-10-12T08:17:13.284Z,13.60
2022-10-12T08:22:15.775Z,12.90
2022-10-12T08:27:18.222Z,18.70
2022-10-12T08:32:22.096Z,23.00
2022-10-12T08:37:24.740Z,23.60
2022-10-12T08:42:41.192Z,26.50
2022-10-12T08:47:48.813Z,30.10
2022-10-12T08:53:00.134Z,39.90
2022-10-12T08:58:03.463Z,26.20
2022-10-12T09:03:42.743Z,15.60
2022-10-12T09:08:54.504Z,31.50
2022-10-12T09:14:08.659Z,15.20
2022-10-12T09:19:20.619Z,14.60
2022-10-12T09:24:26.705Z,14.20
2022-10-12T09:29:31.293Z,8.20
2022-10-12T09:34:34.747Z,11.20
2022-10-12T09:39:39.522Z,10.00
2022-10-12T09:44:48.268Z,14.10
2022-10-12T09:49:52.420Z,10.10
2022-10-12T09:55:05.273Z,11.40
2022-10-12T10:00:27.192Z,8.60
2022-10-12T10:05:34.786Z,7.70
2022-10-12T10:10:37.418Z,10.70
2022-10-12T10:15:43.420Z,10.00
2022-10-12T10:20:55.004Z,6.60
2022-10-12T10:26:09.400Z,6.10
2022-10-12T10:31:16.332Z,12.20
2022-10-12T10:36:23.214Z,6.20
2022-10-12T10:41:31.429Z,11.30
2022-10-12T10:46:37.525Z,7.20
2022-10-12T10:51:49.407Z,8.30
2022-10-12T10:56:56.702Z,8.50
2022-10-12T11:02:09.701Z,5.90
2022-10-12T11:07:51.502Z,5.60
2022-10-12T11:13:03.291Z,5.30
2022-10-12T11:18:20.979Z,8.60
2022-10-12T11:23:29.543Z,7.70
2022-10-12T11:28:34.357Z,6.30
2022-10-12T11:33:40.995Z,5.10
2022-10-12T11:38:48.360Z,7.70
2022-10-12T11:44:17.922Z,10.10
2022-10-12T11:49:31.327Z,10.70
2022-10-12T11:54:41.745Z,6.50
2022-10-12T11:59:47.954Z,5.90
2022-10-12T12:04:51.781Z,4.30
2022-10-12T12:09:54.848Z,6.70
2022-10-12T12:15:18.649Z,5.30
2022-10-12T12:20:43.086Z,5.00
2022-10-12T12:25:45.653Z,13.30
2022-10-12T12:31:07.038Z,6.10
2022-10-12T12:36:12.757Z,6.10
2022-10-12T12:41:34.433Z,6.50
2022-10-12T12:46:55.443Z,5.60
2022-10-12T12:51:58.054Z,6.50
2022-10-12T12:57:18.580Z,3.50
2022-10-12T13:02:53.585Z,3.90
2022-10-12T13:08:15.021Z,5.50
2022-10-12T13:13:39.288Z,9.20
2022-10-12T13:19:03.890Z,10.40
2022-10-12T13:24:33.449Z,6.70
2022-10-12T13:29:45.658Z,4.20
2022-10-12T13:34:54.835Z,4.70
2022-10-12T13:39:57.282Z,5.90
2022-10-12T13:45:03.304Z,7.10
2022-10-12T13:50:18.290Z,7.90
2022-10-12T13:55:26.621Z,5.60
2022-10-12T14:00:30.243Z,5.10
2022-10-12T14:05:33.649Z,5.20
2022-10-12T14:10:38.059Z,4.80
2022-10-12T14:15:41.400Z,6.70
2022-10-12T14:20:43.978Z,5.60
2022-10-12T14:25:55.317Z,3.50
2022-10-12T14:30:58.275Z,6.00
2022-10-12T14:36:27.192Z,4.70
2022-10-12T14:41:44.228Z,8.40
2022-10-12T14:47:10.752Z,12.30
2022-10-12T14:52:20.744Z,26.50
2022-10-12T14:57:24.907Z,46.70
2022-10-12T15:02:29.966Z,40.40
2022-10-12T15:07:34.039Z,44.60
2022-10-12T15:12:37.162Z,46.60
2022-10-12T15:17:39.586Z,60.80
2022-10-12T15:22:42.094Z,61.00
2022-10-12T15:27:44.678Z,41.40
2022-10-12T15:32:47.799Z,28.50
2022-10-12T15:37:51.229Z,14.70
2022-10-12T15:42:53.847Z,11.70
2022-10-12T15:47:56.337Z,12.80
2022-10-12T15:53:02.032Z,12.70
2022-10-12T15:58:04.683Z,13.20
2022-10-12T16:03:07.234Z,14.60
2022-10-12T16:08:09.837Z,20.00
2022-10-12T16:13:13.705Z,20.00
2022-10-12T16:18:16.616Z,27.60
2022-10-12T16:23:24.712Z,31.60
2022-10-12T16:28:29.773Z,26.30
2022-10-12T16:33:32.288Z,27.20
2022-10-12T16:38:36.240Z,34.30
2022-10-12T16:43:39.138Z,23.30
2022-10-12T16:48:41.540Z,38.50
2022-10-12T16:53:44.295Z,24.10
2022-10-12T16:58:48.318Z,19.20
2022-10-12T17:03:54.737Z,29.00
2022-10-12T17:09:01.095Z,24.20
2022-10-12T17:14:08.580Z,21.00
2022-10-12T17:19:16.823Z,19.90
2022-10-12T17:24:24.537Z,19.00
2022-10-12T17:29:31.899Z,12.60
2022-10-12T17:34:40.984Z,13.10
2022-10-12T17:39:47.830Z,12.80
2022-10-12T17:44:50.821Z,8.90
2022-10-12T17:49:53.414Z,11.70
2022-10-12T17:54:55.859Z,15.90
2022-10-12T17:59:58.295Z,11.50
2022-10-12T18:05:00.797Z,15.70
2022-10-12T18:10:04.956Z,15.60
2022-10-12T18:15:09.340Z,12.00
2022-10-12T18:20:12.957Z,14.50
2022-10-12T18:25:15.780Z,12.30
2022-10-12T18:30:18.435Z,11.10
2022-10-12T18:35:21.134Z,17.10
2022-10-12T18:40:23.633Z,13.70
2022-10-12T18:45:26.334Z,12.90
2022-10-12T18:50:28.818Z,16.30
2022-10-12T18:55:32.225Z,19.70
2022-10-12T19:00:34.687Z,21.10
2022-10-12T19:05:37.948Z,23.90
2022-10-12T19:10:41.087Z,15.80
2022-10-12T19:15:43.543Z,19.80
2022-10-12T19:20:46.007Z,16.40
2022-10-12T19:25:49.055Z,17.30
2022-10-12T19:30:54.038Z,18.80
2022-10-12T19:35:56.817Z,17.90
2022-10-12T19:41:01.097Z,16.50
2022-10-12T19:46:08.009Z,13.80
2022-10-12T19:51:14.216Z,17.60
2022-10-12T19:56:20.763Z,20.20
2022-10-12T20:01:27.391Z,15.90
2022-10-12T20:06:32.987Z,15.00
2022-10-12T20:11:35.755Z,15.80
2022-10-12T20:16:38.248Z,15.10
2022-10-12T20:21:40.796Z,14.70
2022-10-12T20:26:43.632Z,15.30
2022-10-12T20:31:46.249Z,15.60
2022-10-12T20:36:48.725Z,16.80
2022-10-12T20:41:51.167Z,18.90
2022-10-12T20:46:53.681Z,15.50
2022-10-12T20:51:56.353Z,22.60
2022-10-12T20:57:00.332Z,14.30
2022-10-12T21:02:05.745Z,20.90
2022-10-12T21:07:08.890Z,14.10
2022-10-12T21:12:11.812Z,14.90
2022-10-12T21:17:15.468Z,16.50
2022-10-12T21:22:18.610Z,16.10
2022-10-12T21:27:21.433Z,15.00
2022-10-12T21:32:23.885Z,18.50
2022-10-12T21:37:28.485Z,14.30
2022-10-12T21:42:30.912Z,15.60
2022-10-12T21:47:33.383Z,17.70
2022-10-12T21:52:36.149Z,19.80
2022-10-12T21:57:41.678Z,16.60
2022-10-12T22:02:44.113Z,17.00
2022-10-12T22:07:47.204Z,17.50
2022-10-12T22:12:49.823Z,17.40
2022-10-12T22:17:52.235Z,17.30
2022-10-12T22:22:54.713Z,16.90
2022-10-12T22:27:57.269Z,13.60
2022-10-12T22:32:59.621Z,16.30
2022-10-12T22:38:02.040Z,16.90
2022-10-12T22:43:04.435Z,17.50
2022-10-12T22:48:06.927Z,13.90
2022-10-12T22:53:09.588Z,14.20
2022-10-12T22:58:12.594Z,12.50
2022-10-12T23:03:15.127Z,14.50
2022-10-12T23:08:17.675Z,11.40
2022-10-12T23:13:20.191Z,14.50
2022-10-12T23:18:22.604Z,18.70
2022-10-12T23:23:25.212Z,14.60
2022-10-12T23:28:28.427Z,16.10
2022-10-12T23:33:31.004Z,16.30
2022-10-12T23:38:34.942Z,12.00
2022-10-12T23:43:37.715Z,12.70
2022-10-12T23:48:40.842Z,12.00
2022-10-12T23:53:43.509Z,17.30
2022-10-12T23:58:47.027Z,14.30
